Time;durP1;ratioP1;P1;durP2;ratioP2;P2;SDS_P1;SDS_P2;PMS_P1;PMS_P2;Temp;Humidity;BMP_temperature;BMP_pressure;BME280_temperature;BME280_humidity;BME280_pressure;Samples;Min_cycle;Max_cycle;Signal;HPM_P1;HPM_P2
2022/04/19 00:01:06;;;;;;;20.50;12.30;;;;;;;-3.28;70.78;96866.73;110064;1248;59756;-68
2022/04/19 00:03:36;;;;;;;23.80;13.60;;;;;;;-3.30;72.40;96868.46;110120;1247;71301;-68
2022/04/19 00:06:07;;;;;;;18.80;9.70;;;;;;;-3.32;72.14;96865.80;110059;1247;69409;-68
2022/04/19 00:08:39;;;;;;;15.70;10.00;;;;;;;-3.33;68.13;96864.45;109919;1250;67735;-69
2022/04/19 00:11:09;;;;;;;13.10;8.70;;;;;;;-3.31;69.18;96863.70;110102;1247;59750;-70
2022/04/19 00:13:39;;;;;;;15.70;9.80;;;;;;;-3.30;67.06;96865.56;110141;1247;59633;-69
2022/04/19 00:16:09;;;;;;;18.10;12.10;;;;;;;-3.28;66.85;96863.83;110144;1247;70510;-70
2022/04/19 00:18:40;;;;;;;23.10;12.80;;;;;;;-3.25;66.51;96860.84;110082;1248;68610;-70
2022/04/19 00:21:10;;;;;;;20.40;12.80;;;;;;;-3.23;67.68;96855.14;110062;1247;69381;-68
2022/04/19 00:23:40;;;;;;;;;;;;;;;-3.21;68.38;96855.77;110117;1247;59746;-68
2022/04/19 00:26:10;;;;;;;14.10;9.20;;;;;;;-3.21;69.22;96852.19;109923;1250;60102;-69
2022/04/19 00:28:41;;;;;;;;;;;;;;;-3.23;68.93;96853.96;110077;1248;70860;-68
2022/04/19 00:31:12;;;;;;;19.20;12.00;;;;;;;-3.26;69.78;96852.33;110121;1247;68665;-69
2022/04/19 00:33:44;;;;;;;15.20;9.80;;;;;;;-3.27;73.06;96852.55;110033;1247;69459;-68
2022/04/19 00:36:14;;;;;;;16.80;10.70;;;;;;;-3.28;73.58;96846.25;110107;1247;59689;-69
2022/04/19 00:38:44;;;;;;;14.00;10.60;;;;;;;-3.29;72.78;96847.45;110071;1247;59666;-69
2022/04/19 00:41:13;;;;;;;24.70;14.40;;;;;;;-3.30;73.54;96851.42;109841;1248;70726;-69
2022/04/19 00:43:45;;;;;;;18.60;13.40;;;;;;;-3.32;73.62;96854.55;110121;1247;69450;-69
2022/04/19 00:46:15;;;;;;;18.60;11.60;;;;;;;-3.33;73.96;96856.27;110087;1247;69367;-70
2022/04/19 00:48:45;;;;;;;;;;;;;;;-3.34;73.04;96856.80;110033;1247;59750;-68
2022/04/19 00:51:17;;;;;;;17.40;11.90;;;;;;;-3.36;73.05;96858.23;109964;1250;59754;-68
2022/04/19 00:53:47;;;;;;;14.70;10.60;;;;;;;-3.37;73.52;96855.02;109963;1249;71474;-69
2022/04/19 00:56:19;;;;;;;18.60;12.20;;;;;;;-3.35;73.78;96854.80;110017;1248;69348;-69
2022/04/19 00:58:50;;;;;;;20.00;12.40;;;;;;;-3.38;73.70;96851.45;110065;1249;69039;-69
2022/04/19 01:01:21;;;;;;;18.60;11.20;;;;;;;-3.45;73.05;96850.98;109801;1250;59678;-68
2022/04/19 01:03:52;;;;;;;18.00;10.10;;;;;;;-3.53;71.15;96848.98;109940;1247;59749;-68
2022/04/19 01:06:26;;;;;;;16.90;10.80;;;;;;;-3.61;70.95;96846.44;109927;1249;71643;-68
2022/04/19 01:08:58;;;;;;;18.10;13.50;;;;;;;-3.66;71.91;96848.10;109742;1250;69403;-67
2022/04/19 01:14:20;;;;;;;14.70;8.80;;;;;;;-3.78;75.59;96842.61;109880;1247;59763;-66
2022/04/19 01:16:51;;;;;;;14.00;9.50;;;;;;;-3.83;75.51;96838.82;110122;1247;59622;-67
2022/04/19 01:19:22;;;;;;;12.80;8.90;;;;;;;-3.85;76.30;96835.28;109967;1247;71391;-67
2022/04/19 01:21:57;;;;;;;17.80;10.70;;;;;;;-3.87;72.85;96831.42;110082;1247;69834;-66
2022/04/19 01:24:36;;;;;;;9.60;6.60;;;;;;;-3.88;72.70;96833.15;110051;1247;69257;-68
2022/04/19 01:27:06;;;;;;;8.40;6.80;;;;;;;-3.90;72.25;96832.88;109993;1250;59727;-66
2022/04/19 01:29:37;;;;;;;19.70;12.50;;;;;;;-3.94;71.61;96830.58;109831;1250;59676;-67
2022/04/19 01:32:13;;;;;;;12.70;9.90;;;;;;;-3.97;74.00;96829.46;110081;1247;70610;-68
2022/04/19 01:34:43;;;;;;;11.50;8.10;;;;;;;-3.99;74.53;96831.21;110080;1249;69227;-69
2022/04/19 01:37:20;;;;;;;10.40;7.50;;;;;;;-4.02;73.11;96833.67;110097;1247;69398;-68
2022/04/19 01:43:02;;;;;;;10.90;7.90;;;;;;;-4.09;71.90;96837.25;109566;1253;59847;-69
2022/04/19 01:45:42;;;;;;;7.60;6.10;;;;;;;-4.12;71.93;96842.23;109503;1253;70770;-69
2022/04/19 01:48:18;;;;;;;10.20;7.90;;;;;;;-4.13;72.36;96846.86;109787;1248;70112;-69
2022/04/19 01:50:48;;;;;;;18.40;10.70;;;;;;;-4.15;72.98;96845.57;110065;1248;68549;-67
2022/04/19 01:53:19;;;;;;;14.20;10.50;;;;;;;-4.15;77.04;96848.46;110074;1248;59738;-68
2022/04/19 01:55:50;;;;;;;22.00;12.60;;;;;;;-4.14;78.47;96850.30;110073;1248;59649;-68
2022/04/19 01:58:39;;;;;;;15.80;9.50;;;;;;;-4.13;78.29;96853.84;110122;1247;70727;-67
2022/04/19 02:01:11;;;;;;;16.00;11.10;;;;;;;-4.14;77.58;96852.67;110162;1246;69343;-68
2022/04/19 02:03:42;;;;;;;10.70;8.90;;;;;;;-4.13;78.42;96854.70;110074;1247;69432;-67
2022/04/19 02:06:17;;;;;;;11.00;8.00;;;;;;;-4.14;76.52;96854.22;110046;1247;59740;-68
2022/04/19 02:08:49;;;;;;;12.90;8.50;;;;;;;-4.13;73.97;96854.19;110084;1247;59675;-69
2022/04/19 02:11:24;;;;;;;10.70;7.70;;;;;;;-4.13;73.32;96849.58;110042;1248;71791;-68
2022/04/19 02:14:10;;;;;;;20.10;12.20;;;;;;;-4.11;73.38;96844.79;110068;1247;68713;-69
2022/04/19 02:16:45;;;;;;;19.80;11.60;;;;;;;-4.06;77.18;96844.01;109965;1247;68599;-68
2022/04/19 02:19:17;;;;;;;16.80;11.20;;;;;;;-4.03;77.37;96840.34;110005;1247;59674;-68
2022/04/19 02:21:47;;;;;;;18.30;11.60;;;;;;;-3.99;77.07;96834.45;109877;1247;59656;-68
2022/04/19 02:24:18;;;;;;;20.50;12.80;;;;;;;-3.94;76.83;96838.07;110102;1247;70818;-68
2022/04/19 02:26:49;;;;;;;17.00;13.20;;;;;;;-3.91;76.59;96834.23;109987;1247;69336;-67
2022/04/19 02:29:19;;;;;;;20.70;14.70;;;;;;;-3.87;75.54;96833.63;109987;1247;69280;-68
2022/04/19 02:31:51;;;;;;;21.80;12.40;;;;;;;-3.83;75.83;96832.70;109850;1250;59711;-69
2022/04/19 02:34:22;;;;;;;15.40;8.60;;;;;;;-3.84;75.53;96832.54;110070;1248;59750;-70
2022/04/19 02:36:53;;;;;;;24.10;14.90;;;;;;;-3.87;72.12;96829.23;110106;1248;70576;-67
2022/04/19 02:39:23;;;;;;;26.60;14.80;;;;;;;-3.90;70.62;96830.50;110044;1247;68788;-67
2022/04/19 02:41:55;;;;;;;25.40;15.00;;;;;;;-3.95;75.16;96833.33;110032;1247;69436;-70
2022/04/19 02:44:25;;;;;;;27.50;16.50;;;;;;;-3.99;75.66;96829.17;110098;1247;59691;-68
2022/04/19 02:47:06;;;;;;;25.50;15.40;;;;;;;-4.03;76.89;96826.90;110072;1247;59700;-68
2022/04/19 02:49:37;;;;;;;17.20;10.90;;;;;;;-4.07;77.33;96825.96;110121;1247;71494;-67
2022/04/19 02:52:08;;;;;;;;;;;;;;;-4.10;72.74;96825.02;110091;1247;68028;-70
2022/04/19 02:54:38;;;;;;;;;;;;;;;-4.10;71.95;96827.08;110065;1248;69350;-68
2022/04/19 02:57:12;;;;;;;15.20;9.40;;;;;;;-4.12;71.61;96826.07;109984;1250;59756;-68
2022/04/19 02:59:45;;;;;;;;;;;;;;;-4.12;71.90;96826.09;110067;1247;59774;-68
2022/04/19 03:02:18;;;;;;;15.80;11.30;;;;;;;-4.14;73.12;96826.14;110142;1247;71540;-68
2022/04/19 03:04:48;;;;;;;16.60;10.70;;;;;;;-4.15;75.89;96828.37;109855;1250;69316;-68
2022/04/19 03:07:19;;;;;;;16.40;10.90;;;;;;;-4.17;76.03;96828.42;110002;1247;69003;-68
2022/04/19 03:09:49;;;;;;;14.30;10.60;;;;;;;-4.21;76.13;96829.86;110074;1247;59811;-68
2022/04/19 03:12:19;;;;;;;12.10;8.00;;;;;;;-4.22;76.95;96835.35;109827;1247;59750;-68
2022/04/19 03:15:07;;;;;;;11.40;8.40;;;;;;;-4.24;72.08;96836.41;110088;1248;71576;-68
2022/04/19 03:17:37;;;;;;;13.70;8.30;;;;;;;-4.22;71.74;96836.52;110044;1248;69598;-69
2022/04/19 03:20:08;;;;;;;11.20;8.00;;;;;;;-4.18;71.50;96840.70;109830;1250;68459;-71
2022/04/19 03:28:21;;;;;;;10.30;7.20;;;;;;;-4.17;76.02;96851.55;110066;1247;70920;-68
2022/04/19 03:30:51;;;;;;;12.20;8.60;;;;;;;-4.17;75.75;96849.19;109889;1250;68612;-68
2022/04/19 03:33:22;;;;;;;13.10;9.00;;;;;;;-4.16;76.97;96852.38;109984;1250;68661;-68
2022/04/19 03:35:53;;;;;;;13.30;8.40;;;;;;;-4.13;76.80;96849.09;109826;1249;59771;-69
2022/04/19 03:38:23;;;;;;;13.00;8.50;;;;;;;-4.12;75.96;96856.02;109818;1247;59755;-69
2022/04/19 03:40:53;;;;;;;13.60;8.70;;;;;;;-4.09;74.90;96857.68;109911;1250;71904;-69
2022/04/19 03:43:23;;;;;;;10.00;7.60;;;;;;;-4.07;76.13;96859.16;110120;1250;68591;-68
2022/04/19 03:45:53;;;;;;;15.90;10.90;;;;;;;-4.05;75.27;96857.26;109998;1248;69334;-68
2022/04/19 03:48:24;;;;;;;14.30;10.30;;;;;;;-4.02;75.62;96862.63;109701;1249;59681;-68
2022/04/19 03:50:53;;;;;;;16.20;9.70;;;;;;;-3.96;76.73;96857.55;109865;1248;59680;-67
2022/04/19 03:53:23;;;;;;;9.70;7.90;;;;;;;-3.89;75.85;96861.96;109864;1250;70815;-68
2022/04/19 03:55:53;;;;;;;15.50;11.80;;;;;;;-3.82;75.91;96867.05;109836;1246;69420;-68
2022/04/19 03:58:22;;;;;;;16.60;12.50;;;;;;;-3.79;74.78;96870.74;109993;1247;68752;-67
2022/04/19 04:00:53;;;;;;;20.10;11.80;;;;;;;-3.78;75.76;96877.19;110056;1249;59698;-68
2022/04/19 04:03:23;;;;;;;14.30;10.60;;;;;;;-3.73;76.82;96879.43;110030;1247;59699;-69
2022/04/19 04:05:52;;;;;;;18.00;11.80;;;;;;;-3.61;76.56;96880.34;109845;1250;70712;-68
2022/04/19 04:08:22;;;;;;;17.70;12.00;;;;;;;-3.45;74.82;96891.16;110087;1248;69345;-68
2022/04/19 04:10:53;;;;;;;;;;;;;;;-3.34;74.73;96891.55;109874;1248;68670;-67
2022/04/19 04:13:26;;;;;;;15.40;9.50;;;;;;;-3.22;73.93;96894.48;109922;1250;59754;-69
2022/04/19 04:15:56;;;;;;;17.80;10.70;;;;;;;-3.13;74.27;96896.12;110113;1247;59685;-70
2022/04/19 04:18:25;;;;;;;18.80;10.70;;;;;;;-2.99;74.85;96899.54;110069;1248;71592;-68
2022/04/19 04:20:55;;;;;;;12.90;8.50;;;;;;;-2.86;74.97;96902.20;110099;1249;69449;-68
2022/04/19 04:23:26;;;;;;;12.60;9.30;;;;;;;-2.72;73.60;96903.36;110093;1248;68470;-67
2022/04/19 04:25:59;;;;;;;16.70;11.70;;;;;;;-2.64;74.04;96902.29;110063;1247;59771;-68
2022/04/19 04:28:31;;;;;;;17.40;11.20;;;;;;;-2.61;74.42;96899.45;110012;1248;59670;-68
2022/04/19 04:31:01;;;;;;;;;;;;;;;-2.54;75.08;96896.53;109856;1247;71457;-67
2022/04/19 04:33:31;;;;;;;15.70;10.60;;;;;;;-2.43;75.00;96893.15;109822;1250;69249;-69
2022/04/19 04:36:03;;;;;;;13.50;8.00;;;;;;;-2.33;74.59;96891.99;110029;1250;68597;-70
2022/04/19 04:38:32;;;;;;;11.30;9.30;;;;;;;-2.22;74.34;96891.65;110059;1247;59686;-67
2022/04/19 04:41:03;;;;;;;14.70;9.40;;;;;;;-2.10;74.14;96891.46;110065;1248;59741;-67
2022/04/19 04:43:33;;;;;;;14.30;8.90;;;;;;;-1.98;73.39;96895.02;110055;1248;71541;-69
2022/04/19 04:51:39;;;;;;;35.40;20.60;;;;;;;-1.76;72.42;96902.02;110128;1247;59678;-68
2022/04/19 04:54:09;;;;;;;35.90;20.60;;;;;;;-1.71;71.68;96904.76;110007;1247;59762;-65
2022/04/19 04:56:38;;;;;;;38.20;23.40;;;;;;;-1.64;70.03;96904.19;110032;1247;71496;-67
2022/04/19 04:59:07;;;;;;;36.70;21.80;;;;;;;-1.59;70.46;96906.09;110103;1247;67722;-67
2022/04/19 05:01:40;;;;;;;39.50;22.50;;;;;;;-1.53;72.81;96911.85;110136;1246;68597;-66
2022/04/19 05:04:10;;;;;;;33.80;19.90;;;;;;;-1.44;72.52;96910.38;110047;1248;59681;-67
2022/04/19 05:06:41;;;;;;;37.60;21.60;;;;;;;-1.32;73.48;96911.69;110005;1248;59730;-69
2022/04/19 05:09:10;;;;;;;30.00;18.50;;;;;;;-1.22;73.39;96913.39;110025;1248;70716;-68
2022/04/19 05:11:40;;;;;;;31.20;19.40;;;;;;;-1.10;73.04;96910.76;109894;1250;69592;-68
2022/04/19 05:14:09;;;;;;;35.20;22.20;;;;;;;-0.99;72.47;96908.17;110030;1248;68911;-67
2022/04/19 05:16:40;;;;;;;37.50;22.80;;;;;;;-0.84;72.25;96907.98;110091;1247;59760;-68
2022/04/19 05:19:10;;;;;;;36.20;20.40;;;;;;;-0.65;71.61;96904.55;110104;1247;59745;-66
2022/04/19 05:21:46;;;;;;;23.30;14.00;;;;;;;-0.46;68.63;96907.98;110071;1247;70771;-68
2022/04/19 05:24:15;;;;;;;21.90;13.70;;;;;;;-0.26;67.27;96903.28;110073;1248;69292;-68
2022/04/19 05:26:46;;;;;;;;;;;;;;;-0.10;65.79;96905.75;110115;1248;69808;-66
2022/04/19 05:29:15;;;;;;;22.60;11.70;;;;;;;0.04;64.85;96910.88;110102;1248;59738;-68
2022/04/19 05:31:45;;;;;;;16.70;10.50;;;;;;;0.16;62.26;96910.42;110045;1248;59733;-68
2022/04/19 05:34:15;;;;;;;15.70;10.60;;;;;;;0.29;61.32;96910.73;110060;1247;71567;-68
2022/04/19 05:36:44;;;;;;;15.50;10.70;;;;;;;0.52;60.61;96912.89;110070;1249;68582;-68
2022/04/19 05:39:13;;;;;;;15.90;10.20;;;;;;;0.70;59.35;96915.25;110085;1248;68647;-65
2022/04/19 05:41:43;;;;;;;14.20;11.00;;;;;;;0.95;59.81;96921.05;110022;1247;59769;-66
2022/04/19 05:44:13;;;;;;;10.90;8.00;;;;;;;1.44;59.62;96917.91;110117;1248;59685;-66
2022/04/19 05:46:42;;;;;;;13.60;9.70;;;;;;;1.88;57.43;96918.00;110093;1247;70932;-66
2022/04/19 05:49:15;;;;;;;11.40;8.30;;;;;;;2.44;57.55;96922.92;110056;1249;68596;-65
2022/04/19 05:51:46;;;;;;;11.10;7.10;;;;;;;2.90;54.65;96921.70;110067;1246;69545;-66
2022/04/19 05:54:15;;;;;;;10.80;8.10;;;;;;;3.57;56.04;96917.59;110013;1247;59688;-67
2022/04/19 05:56:44;;;;;;;8.30;6.30;;;;;;;4.08;51.37;96924.34;110038;1248;59717;-65
2022/04/19 05:59:14;;;;;;;8.90;7.00;;;;;;;4.46;50.22;96922.77;110302;1247;70742;-66
2022/04/19 06:07:23;;;;;;;7.80;5.70;;;;;;;5.18;47.72;96921.73;110341;1247;59665;-65
2022/04/19 06:09:57;;;;;;;8.50;6.30;;;;;;;5.30;45.88;96921.90;110243;1247;59622;-66
2022/04/19 06:12:27;;;;;;;8.40;5.70;;;;;;;5.41;45.23;96920.69;110125;1247;71042;-67
2022/04/19 06:14:56;;;;;;;7.50;6.10;;;;;;;5.59;45.46;96918.23;110082;1248;68664;-67
2022/04/19 06:17:32;;;;;;;;;;;;;;;5.80;46.37;96923.19;110131;1247;69415;-67
2022/04/19 06:20:07;;;;;;;8.50;5.80;;;;;;;6.04;45.91;96922.21;110154;1248;59719;-67
2022/04/19 06:22:36;;;;;;;8.50;5.90;;;;;;;6.16;43.30;96923.21;110224;1247;59721;-65
2022/04/19 06:25:09;;;;;;;8.50;6.50;;;;;;;6.34;43.83;96926.59;110208;1247;70849;-67
2022/04/19 06:27:39;;;;;;;8.10;5.60;;;;;;;6.53;43.60;96923.11;110325;1247;69393;-68
2022/04/19 06:30:09;;;;;;;6.30;5.50;;;;;;;7.06;44.13;96928.30;110111;1247;69542;-67
2022/04/19 06:32:40;;;;;;;7.10;4.90;;;;;;;7.56;42.71;96920.99;110097;1247;59732;-67
2022/04/19 06:35:11;;;;;;;7.00;5.30;;;;;;;7.76;41.51;96920.30;110123;1248;59632;-67
2022/04/19 06:37:40;;;;;;;9.50;6.70;;;;;;;7.97;41.52;96921.62;110039;1248;71614;-70
2022/04/19 06:40:14;;;;;;;7.50;5.60;;;;;;;7.73;40.51;96918.23;110083;1248;69780;-71
2022/04/19 06:42:44;;;;;;;;;;;;;;;7.88;40.04;96918.59;110097;1247;68765;-69
2022/04/19 06:45:20;;;;;;;7.00;5.50;;;;;;;7.86;39.81;96914.36;110228;1247;59676;-70
2022/04/19 06:48:10;;;;;;;8.30;6.50;;;;;;;7.93;40.14;96916.99;110300;1247;59669;-70
2022/04/19 06:50:39;;;;;;;7.60;6.00;;;;;;;8.01;39.93;96914.20;110219;1248;71580;-68
2022/04/19 06:53:10;;;;;;;8.00;5.70;;;;;;;8.22;40.47;96916.02;110296;1247;68839;-70
2022/04/19 06:56:21;;;;;;;6.70;5.50;;;;;;;8.33;39.63;96915.27;110181;1247;68664;-70
2022/04/19 06:58:50;;;;;;;9.00;6.90;;;;;;;8.44;39.35;96914.09;110343;1247;59660;-71
2022/04/19 07:01:20;;;;;;;7.60;6.20;;;;;;;8.66;38.62;96914.95;110107;1247;59636;-69
2022/04/19 07:03:54;;;;;;;8.50;6.30;;;;;;;8.61;38.30;96915.11;110080;1247;70913;-69
2022/04/19 07:06:36;;;;;;;8.50;6.00;;;;;;;8.87;37.22;96912.35;110142;1247;69030;-70
2022/04/19 07:09:06;;;;;;;6.90;5.60;;;;;;;9.21;37.46;96908.78;110109;1247;68624;-70
2022/04/19 07:11:37;;;;;;;6.50;5.70;;;;;;;9.64;36.66;96910.00;109833;1249;59782;-70
2022/04/19 07:14:16;;;;;;;7.60;5.70;;;;;;;9.67;35.79;96910.33;110219;1247;59629;-68
2022/04/19 07:17:00;;;;;;;7.70;6.00;;;;;;;10.08;36.43;96913.11;110484;1245;70467;-70
2022/04/19 07:26:37;;;;;;;7.70;5.10;;;;;;;10.12;35.80;96911.50;110273;1248;69396;-69
2022/04/19 07:28:03;;;;;;;7.40;5.20;;;;;;;10.67;34.41;96914.45;110056;1247;59615;-70
2022/04/19 07:30:43;;;;;;;5.70;4.00;;;;;;;11.12;33.53;96910.77;110427;1244;72265;-71
2022/04/19 07:33:16;;;;;;;5.90;5.00;;;;;;;11.70;32.85;96911.52;110382;1244;68887;-68
2022/04/19 07:35:47;;;;;;;6.30;5.10;;;;;;;11.76;31.51;96909.91;110128;1247;68765;-70
2022/04/19 07:38:16;;;;;;;6.70;4.90;;;;;;;11.41;30.98;96909.09;110032;1248;59706;-70
2022/04/19 07:41:06;;;;;;;5.70;4.20;;;;;;;11.69;31.21;96903.88;110197;1246;59697;-69
2022/04/19 07:43:43;;;;;;;5.80;5.00;;;;;;;12.06;30.66;96904.44;110145;1247;71609;-70
2022/04/19 07:46:18;;;;;;;6.20;4.80;;;;;;;12.36;30.49;96902.52;110252;1247;69418;-66
2022/04/19 07:48:51;;;;;;;5.50;4.70;;;;;;;12.39;29.17;96898.92;110062;1248;69422;-69
2022/04/19 07:51:21;;;;;;;6.20;4.80;;;;;;;12.24;29.44;96895.88;110348;1247;59679;-70
2022/04/19 07:53:50;;;;;;;5.50;4.60;;;;;;;12.98;30.21;96894.85;110119;1247;59722;-71
2022/04/19 07:56:21;;;;;;;6.30;5.10;;;;;;;13.48;29.15;96892.55;110105;1247;71021;-69
2022/04/19 07:58:52;;;;;;;6.30;5.40;;;;;;;13.40;28.73;96895.98;110264;1247;69462;-68
2022/04/19 08:01:23;;;;;;;6.70;5.70;;;;;;;13.48;28.43;96894.98;110141;1247;68798;-68
2022/04/19 08:03:53;;;;;;;8.30;7.00;;;;;;;12.53;28.27;96890.86;110127;1247;59789;-67
2022/04/19 08:06:24;;;;;;;8.50;6.00;;;;;;;12.96;28.51;96888.02;110063;1247;59704;-68
2022/04/19 08:08:55;;;;;;;8.70;6.70;;;;;;;13.46;27.51;96890.17;110157;1248;71533;-68
2022/04/19 08:11:27;;;;;;;8.70;7.30;;;;;;;12.73;28.05;96890.05;110374;1247;69330;-67
2022/04/19 08:13:58;;;;;;;9.00;8.10;;;;;;;11.64;29.97;96887.05;110380;1246;69388;-69
2022/04/19 08:16:28;;;;;;;9.60;8.60;;;;;;;12.51;29.93;96884.52;110141;1247;59766;-69
2022/04/19 08:18:59;;;;;;;10.70;9.00;;;;;;;12.85;29.10;96884.14;110126;1247;59701;-68
2022/04/19 08:21:29;;;;;;;12.50;10.50;;;;;;;13.14;29.81;96882.94;110216;1247;70995;-69
2022/04/19 08:24:00;;;;;;;11.40;9.60;;;;;;;13.00;28.87;96881.41;109982;1248;68431;-68
2022/04/19 08:26:32;;;;;;;12.50;9.20;;;;;;;12.96;29.18;96880.33;110039;1247;69220;-67
2022/04/19 08:29:05;;;;;;;10.40;8.70;;;;;;;12.79;28.92;96881.67;110106;1248;59705;-68
2022/04/19 08:31:36;;;;;;;10.50;9.40;;;;;;;12.91;29.28;96881.53;110102;1247;59754;-68
2022/04/19 08:34:08;;;;;;;12.80;9.10;;;;;;;13.09;28.76;96882.14;110121;1246;70908;-67
2022/04/19 08:36:44;;;;;;;11.20;9.50;;;;;;;13.69;28.44;96876.75;110058;1247;70313;-67
2022/04/19 08:39:15;;;;;;;12.50;9.40;;;;;;;14.05;27.03;96877.05;109897;1247;68513;-68
2022/04/19 08:41:47;;;;;;;9.20;7.70;;;;;;;14.48;26.55;96880.25;110076;1248;59772;-66
2022/04/19 08:44:19;;;;;;;10.10;8.30;;;;;;;14.89;26.44;96878.55;110131;1248;59739;-69
2022/04/19 08:46:48;;;;;;;10.40;7.20;;;;;;;15.37;25.05;96877.58;110200;1247;72272;-69
2022/04/19 08:49:18;;;;;;;10.30;7.80;;;;;;;15.09;25.10;96878.14;110276;1247;69467;-70
2022/04/19 08:51:47;;;;;;;7.00;6.00;;;;;;;15.14;25.57;96877.02;110089;1247;69529;-70
2022/04/19 08:59:54;;;;;;;4.90;4.30;;;;;;;16.59;24.45;96872.42;110053;1247;70494;-69
2022/04/19 09:02:26;;;;;;;4.70;3.50;;;;;;;16.45;23.13;96869.55;110157;1247;69393;-70
2022/04/19 09:05:12;;;;;;;4.40;3.80;;;;;;;16.10;22.77;96871.79;109848;1247;412988;-69
2022/04/19 09:07:42;;;;;;;4.60;3.10;;;;;;;15.46;23.86;96868.70;110147;1247;59748;-69
2022/04/19 09:10:30;;;;;;;;;;;;;;;14.85;23.90;96873.52;110133;1247;59725;-70
2022/04/19 09:13:10;;;;;;;4.30;3.20;;;;;;;14.37;24.84;96871.17;110172;1247;70879;-71
2022/04/19 09:15:41;;;;;;;3.60;2.90;;;;;;;13.71;24.64;96869.08;110161;1247;69412;-70
2022/04/19 09:18:24;;;;;;;4.10;3.60;;;;;;;13.08;26.11;96870.85;110134;1246;68629;-70
2022/04/19 09:20:54;;;;;;;5.50;3.60;;;;;;;12.81;26.50;96868.00;110175;1247;59714;-70
2022/04/19 09:23:26;;;;;;;5.20;3.90;;;;;;;12.07;27.55;96867.10;110098;1247;59737;-72
2022/04/19 09:26:00;;;;;;;6.70;3.80;;;;;;;11.83;27.70;96870.44;110129;1246;70477;-69
2022/04/19 09:28:31;;;;;;;5.00;3.80;;;;;;;11.59;28.20;96866.37;110066;1247;67985;-69
2022/04/19 09:31:07;;;;;;;5.50;3.70;;;;;;;11.54;28.31;96866.95;110097;1247;69412;-69
2022/04/19 09:33:37;;;;;;;4.50;3.90;;;;;;;11.75;28.30;96864.98;110079;1248;59767;-71
2022/04/19 09:36:07;;;;;;;6.60;4.60;;;;;;;12.52;27.15;96859.11;110123;1247;59640;-71
2022/04/19 09:38:49;;;;;;;3.60;3.10;;;;;;;13.40;27.52;96859.67;110136;1247;71301;-70
2022/04/19 09:41:32;;;;;;;5.10;4.10;;;;;;;14.25;26.23;96859.53;110136;1247;69489;-71
2022/04/19 09:44:11;;;;;;;4.90;3.70;;;;;;;14.90;25.52;96856.55;110128;1247;68982;-71
2022/04/19 09:47:04;;;;;;;4.50;4.00;;;;;;;15.40;22.94;96853.09;110098;1246;59683;-72
2022/04/19 09:49:44;;;;;;;4.40;3.30;;;;;;;15.90;22.54;96853.67;110276;1247;59667;-70
2022/04/19 09:52:24;;;;;;;4.90;3.60;;;;;;;16.30;21.55;96850.38;110123;1247;70569;-70
2022/04/19 09:55:00;;;;;;;4.40;4.00;;;;;;;16.82;20.89;96852.05;110130;1247;69374;-70
2022/04/19 09:57:36;;;;;;;4.70;3.80;;;;;;;17.66;21.68;96850.94;110109;1246;69453;-71
2022/04/19 10:00:12;;;;;;;5.10;4.10;;;;;;;17.94;21.18;96846.97;110142;1247;59742;-69
2022/04/19 10:08:24;;;;;;;4.10;3.60;;;;;;;15.76;20.79;96849.84;110202;1248;69477;-71
2022/04/19 10:10:56;;;;;;;5.20;3.70;;;;;;;15.02;21.53;96852.85;109839;1247;68718;-69
2022/04/19 10:13:26;;;;;;;7.80;5.50;;;;;;;14.84;21.96;96851.02;110072;1247;59661;-71
2022/04/19 10:15:55;;;;;;;;;;;;;;;15.16;21.96;96847.12;110077;1247;59702;-68
2022/04/19 10:18:25;;;;;;;4.20;3.80;;;;;;;15.10;21.67;96840.67;110101;1247;71583;-69
2022/04/19 10:21:00;;;;;;;4.80;3.50;;;;;;;15.01;22.32;96843.52;109977;1248;69838;-72
2022/04/19 10:23:43;;;;;;;3.70;3.20;;;;;;;14.80;22.75;96848.58;110093;1247;68471;-71
2022/04/19 10:26:24;;;;;;;4.30;3.20;;;;;;;14.23;23.52;96847.12;110113;1247;59689;-72
2022/04/19 10:28:56;;;;;;;3.80;3.40;;;;;;;13.98;24.10;96847.29;110146;1247;59685;-69
2022/04/19 10:31:31;;;;;;;5.50;4.00;;;;;;;13.76;24.42;96839.40;110145;1247;71395;-69
2022/04/19 10:34:05;;;;;;;5.50;3.80;;;;;;;14.03;26.96;96840.61;110151;1247;68414;-69
2022/04/19 10:36:40;;;;;;;4.40;3.30;;;;;;;14.82;25.12;96822.98;110062;1247;68997;-72
2022/04/19 10:39:11;;;;;;;5.90;4.10;;;;;;;15.15;23.11;96836.91;110129;1247;59697;-71
2022/04/19 10:42:05;;;;;;;4.90;4.30;;;;;;;15.45;24.43;96830.83;110123;1247;59724;-71
2022/04/19 10:44:43;;;;;;;5.10;4.40;;;;;;;15.26;24.02;96835.01;110076;1247;70757;-70
2022/04/19 10:47:18;;;;;;;5.20;3.80;;;;;;;14.68;24.19;96834.71;110098;1247;68622;-71
2022/04/19 10:49:57;;;;;;;5.30;4.00;;;;;;;14.45;24.33;96837.84;109827;1251;68668;-69
2022/04/19 10:52:44;;;;;;;5.90;4.50;;;;;;;14.13;25.15;96842.83;110081;1247;59721;-71
2022/04/19 10:55:17;;;;;;;4.50;3.70;;;;;;;13.98;24.82;96845.46;110070;1247;59660;-71
2022/04/19 10:58:06;;;;;;;5.30;3.90;;;;;;;13.74;24.56;96841.98;110041;1247;70728;-71
2022/04/19 11:00:41;;;;;;;5.60;5.00;;;;;;;13.44;25.71;96841.12;110115;1247;68692;-69
2022/04/19 11:03:37;;;;;;;6.30;4.40;;;;;;;13.25;26.26;96838.56;110049;1247;69670;-72
2022/04/19 11:06:28;;;;;;;5.50;4.00;;;;;;;13.35;26.54;96832.59;110096;1247;59694;-69
2022/04/19 11:09:13;;;;;;;5.80;4.30;;;;;;;14.07;25.22;96833.70;110030;1247;59792;-69
2022/04/19 11:11:47;;;;;;;4.60;3.80;;;;;;;14.32;23.99;96834.03;110085;1247;71300;-71
2022/04/19 11:14:21;;;;;;;5.50;4.80;;;;;;;15.08;22.62;96826.48;109826;1248;68729;-70
2022/04/19 11:16:53;;;;;;;4.10;3.60;;;;;;;15.68;21.61;96822.37;110026;1247;69398;-71
2022/04/19 11:19:25;;;;;;;5.80;3.90;;;;;;;16.45;22.68;96825.50;110074;1247;59758;-71
2022/04/19 11:22:01;;;;;;;4.80;3.70;;;;;;;16.48;20.50;96827.36;110110;1247;59750;-69
2022/04/19 11:24:58;;;;;;;5.20;4.00;;;;;;;15.78;20.30;96825.48;110130;1247;71622;-72
2022/04/19 11:27:52;;;;;;;4.20;3.80;;;;;;;15.87;20.94;96821.96;110161;1248;68749;-71
2022/04/19 11:30:23;;;;;;;4.30;3.90;;;;;;;16.36;20.63;96818.13;110066;1247;69418;-69
2022/04/19 11:32:56;;;;;;;5.40;3.70;;;;;;;16.41;20.02;96816.84;109999;1247;59811;-71
2022/04/19 11:35:26;;;;;;;4.10;3.50;;;;;;;15.87;20.09;96817.95;110087;1247;59761;-71
2022/04/19 11:37:56;;;;;;;4.10;3.60;;;;;;;14.76;20.75;96820.41;110170;1247;70838;-69
2022/04/19 11:48:51;;;;;;;4.30;3.50;;;;;;;12.24;23.86;96816.06;110115;1246;59717;-71
2022/04/19 11:51:21;;;;;;;4.00;3.00;;;;;;;11.77;24.69;96809.50;110123;1247;70837;-71
2022/04/19 11:53:50;;;;;;;4.80;3.80;;;;;;;11.61;25.30;96808.20;110079;1247;68651;-71
2022/04/19 11:56:21;;;;;;;4.70;3.90;;;;;;;11.64;24.85;96806.63;110050;1247;68727;-71
2022/04/19 11:58:52;;;;;;;;;;;;;;;11.26;25.78;96803.02;110060;1247;59800;-70
2022/04/19 12:01:21;;;;;;;3.70;3.20;;;;;;;11.51;25.40;96799.88;110316;1247;59736;-70
2022/04/19 12:03:50;;;;;;;3.40;2.70;;;;;;;11.74;25.15;96793.15;110289;1247;71766;-71
2022/04/19 12:06:20;;;;;;;5.20;3.50;;;;;;;12.01;26.46;96789.45;110253;1247;69238;-71
2022/04/19 12:08:51;;;;;;;4.20;3.10;;;;;;;12.22;25.95;96789.98;110245;1247;69509;-71
2022/04/19 12:11:23;;;;;;;4.90;3.30;;;;;;;12.78;26.24;96787.39;110149;1247;59677;-67
2022/04/19 12:13:54;;;;;;;4.30;3.00;;;;;;;13.53;26.54;96787.30;110254;1247;59633;-71
2022/04/19 12:16:34;;;;;;;4.50;3.10;;;;;;;14.06;24.98;96786.05;110112;1247;70775;-71
2022/04/19 12:19:09;;;;;;;3.70;2.70;;;;;;;14.36;23.24;96784.52;110028;1247;69611;-68
2022/04/19 12:21:42;;;;;;;4.30;3.00;;;;;;;14.32;23.70;96780.89;110076;1247;68769;-70
2022/04/19 12:24:17;;;;;;;4.20;3.10;;;;;;;13.64;23.34;96778.11;110162;1247;59765;-70
2022/04/19 12:27:07;;;;;;;3.60;2.90;;;;;;;12.82;23.33;96776.19;110130;1247;59677;-70
2022/04/19 12:30:09;;;;;;;3.70;2.90;;;;;;;12.87;24.23;96776.09;110023;1247;71563;-69
2022/04/19 12:32:59;;;;;;;4.40;2.50;;;;;;;13.12;23.84;96776.14;110081;1247;69084;-70
2022/04/19 12:35:37;;;;;;;4.70;3.00;;;;;;;13.30;23.53;96777.01;110062;1247;69590;-71
2022/04/19 12:38:13;;;;;;;3.40;2.50;;;;;;;13.45;23.73;96778.44;110137;1247;59691;-69
2022/04/19 12:40:43;;;;;;;3.10;2.80;;;;;;;13.37;23.42;96775.08;110130;1246;59679;-67